Fashing, Texas
Current Conditions -  °F | °C
As of 1:35 PM on Saturday 25 Oct 2014 (Local Time) from KPEZ Reporting Station
Clear Clear  
Wind Chill: 85°   Ceiling: Unl
Heat Index: 85°   Visibility: 10mi
Dew Point: 55°   Wind: 3mph
Humidity: 35%   Direction: 120°ESE
Pressure: 30.15"   Gusts: NA
Location:  28.7932°N, 98.2489°W
Report Text: KPEZ 251835Z AUTO 12003KT 10SM CLR 30/13 A3015 RMK AO2 T02960126
Loading
Personal Weather Stations






























Interactive Weather Map
Tropical Storm Tracking
New forecast layout! Learn more

10-Day Weather Forecast

Advertisements
Track Severe Weather on mobile